createdAt,value
2017-09-20T00:00:36.804Z,0
2017-09-20T00:01:17.376Z,0
2017-09-20T00:01:57.957Z,0
2017-09-20T00:02:38.533Z,0
2017-09-20T00:03:19.111Z,0
2017-09-20T00:03:59.698Z,0
2017-09-20T00:04:40.283Z,0
2017-09-20T00:05:20.859Z,0
2017-09-20T00:06:01.443Z,0
2017-09-20T00:06:42.025Z,0
2017-09-20T00:07:22.603Z,0
2017-09-20T00:08:03.184Z,0
2017-09-20T00:08:43.763Z,0
2017-09-20T00:09:24.344Z,0
2017-09-20T00:10:04.924Z,0
2017-09-20T00:10:45.506Z,0
2017-09-20T00:11:26.081Z,0
2017-09-20T00:12:06.659Z,0
2017-09-20T00:12:47.240Z,0
2017-09-20T00:13:27.828Z,0
2017-09-20T00:14:08.404Z,0
2017-09-20T00:14:48.982Z,0
2017-09-20T00:15:29.556Z,0
2017-09-20T00:16:10.138Z,0
2017-09-20T00:16:50.717Z,0
2017-09-20T00:17:31.292Z,0
2017-09-20T00:18:11.880Z,0
2017-09-20T00:18:52.457Z,0
2017-09-20T00:19:33.034Z,0
2017-09-20T00:20:13.609Z,0
2017-09-20T00:20:54.201Z,0
2017-09-20T00:21:34.767Z,0
2017-09-20T00:22:15.332Z,0
2017-09-20T00:22:55.913Z,0
2017-09-20T00:23:36.502Z,0
2017-09-20T00:24:17.081Z,0
2017-09-20T00:24:57.659Z,0
2017-09-20T00:25:38.239Z,0
2017-09-20T00:26:18.820Z,0
2017-09-20T00:26:59.396Z,0
2017-09-20T00:29:32.599Z,0
2017-09-20T00:30:13.176Z,0
2017-09-20T00:30:53.755Z,0
2017-09-20T00:31:34.331Z,0
2017-09-20T00:32:14.908Z,0
2017-09-20T00:32:55.493Z,0
2017-09-20T00:33:36.070Z,0
2017-09-20T00:34:16.636Z,0
2017-09-20T00:34:57.222Z,0
2017-09-20T00:35:37.798Z,0
2017-09-20T00:36:18.380Z,0
2017-09-20T00:36:58.960Z,0
2017-09-20T00:37:39.541Z,0
2017-09-20T00:38:20.119Z,0
2017-09-20T00:39:00.695Z,0
2017-09-20T00:39:41.262Z,0
2017-09-20T00:40:21.828Z,0
2017-09-20T00:41:02.388Z,0
2017-09-20T00:41:42.964Z,0
2017-09-20T00:42:23.543Z,0
2017-09-20T00:43:04.107Z,0
2017-09-20T00:43:44.681Z,0
2017-09-20T00:44:25.267Z,0
2017-09-20T00:45:05.849Z,0
2017-09-20T00:45:46.437Z,0
2017-09-20T00:46:27.018Z,0
2017-09-20T00:47:07.578Z,0
2017-09-20T00:47:48.153Z,0
2017-09-20T00:48:28.742Z,0
2017-09-20T00:49:09.319Z,0
2017-09-20T00:49:49.903Z,0
2017-09-20T00:50:30.477Z,0
2017-09-20T00:51:11.057Z,0
2017-09-20T00:51:51.639Z,0
2017-09-20T00:52:32.235Z,0
2017-09-20T00:53:12.783Z,0
2017-09-20T00:53:53.362Z,0
2017-09-20T00:54:33.940Z,0
2017-09-20T00:55:14.519Z,0
2017-09-20T00:55:55.105Z,0
2017-09-20T00:56:35.672Z,0
2017-09-20T00:57:16.247Z,0
2017-09-20T00:57:56.824Z,0
2017-09-20T00:58:37.405Z,0
2017-09-20T00:59:17.984Z,0
2017-09-20T00:59:58.570Z,0
2017-09-20T01:00:39.154Z,0
2017-09-20T01:01:19.731Z,0
2017-09-20T01:02:00.311Z,0
2017-09-20T01:02:40.897Z,0
2017-09-20T01:03:21.465Z,0
2017-09-20T01:04:02.041Z,0
2017-09-20T01:04:42.619Z,0
2017-09-20T01:05:23.203Z,0
2017-09-20T01:06:03.779Z,0
2017-09-20T01:06:44.358Z,0
2017-09-20T01:07:24.941Z,0
2017-09-20T01:08:05.521Z,0
2017-09-20T01:08:46.102Z,0
2017-09-20T01:09:26.688Z,0
2017-09-20T01:10:07.268Z,0
2017-09-20T01:10:47.841Z,0
2017-09-20T01:11:28.425Z,0
2017-09-20T01:12:08.995Z,0
2017-09-20T01:12:49.573Z,0
2017-09-20T01:13:30.144Z,0
2017-09-20T01:14:10.721Z,0
2017-09-20T01:14:51.304Z,0
2017-09-20T01:15:31.885Z,0
2017-09-20T01:16:12.461Z,0
2017-09-20T01:16:53.062Z,0
2017-09-20T01:17:33.640Z,0
2017-09-20T01:18:14.224Z,0
2017-09-20T01:18:54.799Z,0
2017-09-20T01:20:52.524Z,0
2017-09-20T01:21:33.092Z,0
2017-09-20T01:22:13.662Z,0
2017-09-20T01:22:54.235Z,0
2017-09-20T01:23:34.820Z,0
2017-09-20T01:24:15.403Z,0
2017-09-20T01:24:55.971Z,0
2017-09-20T01:25:36.550Z,0
2017-09-20T01:26:17.125Z,0
2017-09-20T01:26:57.709Z,0
2017-09-20T01:27:38.288Z,0
2017-09-20T01:28:18.861Z,0
2017-09-20T01:28:59.449Z,0
2017-09-20T01:29:40.033Z,0
2017-09-20T01:30:20.604Z,0
2017-09-20T01:31:01.182Z,0
2017-09-20T01:31:41.764Z,0
2017-09-20T01:32:22.345Z,0
2017-09-20T01:33:02.920Z,0
2017-09-20T01:33:43.505Z,0
2017-09-20T01:34:24.083Z,0
2017-09-20T01:35:04.664Z,0
2017-09-20T01:35:45.234Z,0
2017-09-20T01:36:25.817Z,0
2017-09-20T01:37:06.403Z,0
2017-09-20T01:37:46.980Z,0
2017-09-20T01:38:27.554Z,0
2017-09-20T01:39:08.117Z,0
2017-09-20T01:39:48.701Z,0
2017-09-20T01:40:29.286Z,0
2017-09-20T01:41:09.866Z,0
2017-09-20T01:41:50.451Z,0
2017-09-20T01:42:31.024Z,0
2017-09-20T01:43:11.610Z,0
2017-09-20T01:43:52.196Z,0
2017-09-20T01:44:32.782Z,0
2017-09-20T01:45:13.365Z,0
2017-09-20T01:45:53.945Z,0
2017-09-20T01:46:34.522Z,0
2017-09-20T01:47:15.109Z,0
2017-09-20T01:47:55.690Z,0
2017-09-20T01:48:36.276Z,0
2017-09-20T01:49:16.856Z,0
2017-09-20T01:49:57.442Z,0
2017-09-20T01:50:38.017Z,0
2017-09-20T01:51:18.595Z,0
2017-09-20T01:51:59.180Z,0
2017-09-20T01:52:39.755Z,0
2017-09-20T01:53:20.344Z,0
2017-09-20T01:54:00.931Z,0
2017-09-20T01:54:41.512Z,0
2017-09-20T01:55:22.092Z,0
2017-09-20T01:56:02.674Z,0
2017-09-20T01:56:43.249Z,0
2017-09-20T01:57:23.832Z,0
2017-09-20T01:58:04.410Z,0
2017-09-20T01:58:44.995Z,0
2017-09-20T01:59:25.564Z,0
2017-09-20T02:00:06.151Z,0
2017-09-20T02:00:46.717Z,0
2017-09-20T02:01:27.300Z,0
2017-09-20T02:02:07.875Z,0
2017-09-20T02:02:48.454Z,0
2017-09-20T02:03:29.035Z,0
2017-09-20T02:04:09.613Z,0
2017-09-20T02:04:50.209Z,0
2017-09-20T02:05:30.790Z,0
2017-09-20T02:06:11.360Z,0
2017-09-20T02:06:51.939Z,0
2017-09-20T02:07:32.510Z,0
2017-09-20T02:08:13.097Z,0
2017-09-20T02:08:53.671Z,0
2017-09-20T02:09:34.249Z,0
2017-09-20T02:10:14.835Z,0
2017-09-20T02:10:55.423Z,0
2017-09-20T02:11:35.996Z,0
2017-09-20T02:12:16.586Z,0
2017-09-20T02:12:57.162Z,0
2017-09-20T02:13:37.744Z,0
2017-09-20T02:14:18.314Z,0
2017-09-20T02:14:58.888Z,0
2017-09-20T02:15:39.476Z,0
2017-09-20T02:16:20.058Z,0
2017-09-20T02:17:00.636Z,0
2017-09-20T02:17:41.205Z,0
2017-09-20T02:18:21.785Z,0
2017-09-20T02:19:02.362Z,0
2017-09-20T02:19:42.942Z,0
2017-09-20T02:20:23.518Z,0
2017-09-20T02:21:04.093Z,0
2017-09-20T02:21:44.674Z,0
2017-09-20T02:22:25.254Z,0
2017-09-20T02:23:05.830Z,0
2017-09-20T02:23:46.398Z,0
2017-09-20T02:24:26.988Z,0
2017-09-20T02:25:07.570Z,0
2017-09-20T02:25:48.144Z,0
2017-09-20T02:26:28.728Z,0
2017-09-20T02:27:09.315Z,0
2017-09-20T02:27:49.889Z,0
2017-09-20T02:28:30.468Z,0
2017-09-20T02:29:11.041Z,0
2017-09-20T02:29:51.625Z,0
2017-09-20T02:30:32.198Z,0
2017-09-20T02:31:12.769Z,0
2017-09-20T02:31:53.352Z,0
2017-09-20T02:32:33.919Z,0
2017-09-20T02:33:14.499Z,0
2017-09-20T02:33:55.076Z,0
2017-09-20T02:34:35.656Z,0
2017-09-20T02:35:16.241Z,0
2017-09-20T02:35:56.825Z,0
2017-09-20T02:36:37.402Z,0
2017-09-20T02:37:17.983Z,0
2017-09-20T02:37:58.563Z,0
2017-09-20T02:38:39.129Z,0
2017-09-20T02:39:19.710Z,0
2017-09-20T02:40:00.292Z,0
2017-09-20T02:40:40.857Z,0
2017-09-20T02:41:21.434Z,0
2017-09-20T02:42:02.011Z,0
2017-09-20T02:42:42.591Z,0
2017-09-20T02:43:23.154Z,0
2017-09-20T02:44:03.737Z,0
2017-09-20T02:44:44.315Z,0
2017-09-20T02:45:24.896Z,0
2017-09-20T02:46:05.493Z,0
2017-09-20T02:46:46.064Z,0
2017-09-20T02:47:26.637Z,0
2017-09-20T02:48:07.222Z,0
2017-09-20T02:48:47.804Z,0
2017-09-20T02:49:28.382Z,0
2017-09-20T02:50:08.954Z,0
2017-09-20T02:50:49.531Z,0
2017-09-20T02:51:30.088Z,0
2017-09-20T02:52:10.665Z,0
2017-09-20T02:52:51.249Z,0
2017-09-20T02:53:31.826Z,0
2017-09-20T02:54:12.400Z,0
2017-09-20T02:54:52.977Z,0
2017-09-20T02:55:33.554Z,0
2017-09-20T02:56:14.141Z,0
2017-09-20T02:56:54.724Z,0
2017-09-20T02:57:35.296Z,0
2017-09-20T02:58:15.873Z,0
2017-09-20T02:58:56.437Z,0
2017-09-20T02:59:37.014Z,0
2017-09-20T03:00:17.598Z,0
2017-09-20T03:00:58.177Z,0
2017-09-20T03:01:38.739Z,0
2017-09-20T03:02:19.306Z,0
2017-09-20T03:02:59.887Z,0
2017-09-20T03:03:40.453Z,0
2017-09-20T03:04:21.033Z,0
2017-09-20T03:05:01.616Z,0
2017-09-20T03:05:42.194Z,0
2017-09-20T03:06:22.774Z,0
2017-09-20T03:07:03.358Z,0
2017-09-20T03:07:43.938Z,0
2017-09-20T03:08:24.508Z,0
2017-09-20T03:09:05.094Z,0
2017-09-20T03:09:45.664Z,0
2017-09-20T03:10:26.249Z,0
2017-09-20T03:11:06.826Z,0
2017-09-20T03:11:47.391Z,0
2017-09-20T03:12:27.969Z,0
2017-09-20T03:13:08.547Z,0
2017-09-20T03:13:49.127Z,0
2017-09-20T03:14:29.704Z,0
2017-09-20T03:15:10.316Z,0
2017-09-20T03:15:50.883Z,0
2017-09-20T03:16:31.467Z,0
2017-09-20T03:17:26.934Z,0
2017-09-20T03:18:07.504Z,0
2017-09-20T03:18:48.079Z,0
2017-09-20T03:19:28.655Z,0
2017-09-20T03:20:09.238Z,0
2017-09-20T03:20:49.802Z,0
2017-09-20T03:21:30.377Z,0
2017-09-20T03:22:10.965Z,0
2017-09-20T03:22:51.553Z,0
2017-09-20T03:23:32.122Z,0
2017-09-20T03:24:12.731Z,0
2017-09-20T03:24:53.288Z,0
2017-09-20T03:25:33.867Z,0
2017-09-20T03:26:14.448Z,0
2017-09-20T03:26:55.001Z,0
2017-09-20T03:27:35.570Z,0
2017-09-20T03:28:16.151Z,0
2017-09-20T03:28:56.726Z,0
2017-09-20T03:29:37.309Z,0
2017-09-20T03:30:17.888Z,0
2017-09-20T03:32:20.615Z,0
2017-09-20T03:33:01.191Z,0
2017-09-20T03:33:41.770Z,0
2017-09-20T03:34:22.347Z,0
2017-09-20T03:35:02.927Z,0
2017-09-20T03:35:43.508Z,0
2017-09-20T03:36:24.078Z,0
2017-09-20T03:37:04.664Z,0
2017-09-20T03:37:45.243Z,0
2017-09-20T03:38:25.821Z,0
2017-09-20T03:39:06.411Z,0
2017-09-20T03:39:46.987Z,0
2017-09-20T03:40:27.554Z,0
2017-09-20T03:41:08.129Z,0
2017-09-20T03:41:48.700Z,0
2017-09-20T03:42:29.287Z,0
2017-09-20T03:43:09.869Z,0
2017-09-20T03:43:50.424Z,0
2017-09-20T03:44:31.000Z,0
2017-09-20T03:45:11.575Z,0
2017-09-20T03:45:52.154Z,0
2017-09-20T03:48:25.252Z,0
2017-09-20T03:49:05.834Z,0
2017-09-20T03:49:46.413Z,0
2017-09-20T03:50:26.993Z,0
2017-09-20T03:51:07.586Z,0
2017-09-20T03:51:48.148Z,0
2017-09-20T03:52:28.729Z,0
2017-09-20T03:53:09.291Z,0
2017-09-20T03:53:49.866Z,0
2017-09-20T03:54:30.437Z,0
2017-09-20T03:55:11.015Z,0
2017-09-20T03:55:51.591Z,0
2017-09-20T03:56:32.174Z,0
2017-09-20T03:57:12.755Z,0
2017-09-20T03:57:53.340Z,0
2017-09-20T03:58:33.917Z,0
2017-09-20T03:59:14.497Z,0
2017-09-20T03:59:55.075Z,0
2017-09-20T04:00:35.648Z,0
2017-09-20T04:01:16.224Z,0
2017-09-20T04:01:56.807Z,0
2017-09-20T04:02:37.393Z,0
2017-09-20T04:03:17.968Z,0
2017-09-20T04:03:58.552Z,0
2017-09-20T04:04:39.128Z,0
2017-09-20T04:05:19.690Z,0
2017-09-20T04:06:00.254Z,0
2017-09-20T04:06:40.831Z,0
2017-09-20T04:07:21.415Z,0
2017-09-20T04:08:01.984Z,0
2017-09-20T04:08:42.565Z,0
2017-09-20T04:09:23.151Z,0
2017-09-20T04:10:03.729Z,0
2017-09-20T04:10:44.303Z,0
2017-09-20T04:11:24.889Z,0
2017-09-20T04:12:05.477Z,0
2017-09-20T04:12:46.041Z,0
2017-09-20T04:13:26.629Z,0
2017-09-20T04:14:07.215Z,0
2017-09-20T04:14:47.790Z,0
2017-09-20T04:15:28.370Z,0
2017-09-20T04:16:08.951Z,0
2017-09-20T04:16:49.533Z,0
2017-09-20T04:17:30.120Z,0
2017-09-20T04:18:10.696Z,0
2017-09-20T04:18:54.759Z,0
2017-09-20T04:19:37.010Z,0
2017-09-20T04:20:17.584Z,0
2017-09-20T04:20:58.164Z,0
2017-09-20T04:21:38.749Z,0
2017-09-20T04:22:19.330Z,0
2017-09-20T04:22:59.901Z,0
2017-09-20T04:23:40.487Z,0
2017-09-20T04:24:21.056Z,0
2017-09-20T04:25:01.637Z,0
2017-09-20T04:25:42.200Z,0
2017-09-20T04:26:22.785Z,0
2017-09-20T04:27:03.348Z,0
2017-09-20T04:27:43.929Z,0
2017-09-20T04:28:24.511Z,0
2017-09-20T04:29:05.094Z,0
2017-09-20T04:29:45.657Z,0
2017-09-20T04:30:26.243Z,0
2017-09-20T04:31:06.824Z,0
2017-09-20T04:31:47.395Z,0
2017-09-20T04:32:27.980Z,0
2017-09-20T04:33:08.563Z,0
2017-09-20T04:33:49.152Z,0
2017-09-20T04:34:29.732Z,0
2017-09-20T04:35:10.319Z,0
2017-09-20T04:35:50.887Z,0
2017-09-20T04:36:31.473Z,4
2017-09-20T04:37:12.045Z,4
2017-09-20T04:37:52.619Z,4
2017-09-20T04:38:33.196Z,0
2017-09-20T04:39:13.789Z,4
2017-09-20T04:39:54.359Z,4
2017-09-20T04:40:34.936Z,8
2017-09-20T04:42:33.167Z,4
2017-09-20T04:43:13.753Z,8
2017-09-20T04:43:54.321Z,8
2017-09-20T04:44:34.898Z,12
2017-09-20T04:45:15.470Z,12
2017-09-20T04:45:56.053Z,16
2017-09-20T04:46:36.633Z,16
2017-09-20T04:47:17.210Z,16
2017-09-20T04:47:57.787Z,16
2017-09-20T04:48:38.367Z,20
2017-09-20T04:49:18.936Z,24
2017-09-20T04:49:59.506Z,28
2017-09-20T04:50:40.085Z,28
2017-09-20T04:51:20.658Z,36
2017-09-20T04:52:01.244Z,36
2017-09-20T04:52:41.816Z,40
2017-09-20T04:53:22.399Z,40
2017-09-20T04:54:02.969Z,48
2017-09-20T04:54:43.540Z,52
2017-09-20T04:55:24.107Z,56
2017-09-20T04:56:04.686Z,60
2017-09-20T04:56:45.279Z,64
2017-09-20T04:57:25.868Z,72
2017-09-20T04:58:06.448Z,80
2017-09-20T04:58:47.019Z,84
2017-09-20T04:59:27.591Z,92
2017-09-20T05:00:08.172Z,96
2017-09-20T05:00:48.747Z,100
2017-09-20T05:01:29.325Z,104
2017-09-20T05:02:09.898Z,116
2017-09-20T05:02:50.485Z,124
2017-09-20T05:03:31.069Z,136
2017-09-20T05:04:11.647Z,148
2017-09-20T05:04:52.227Z,152
2017-09-20T05:05:32.808Z,168
2017-09-20T05:06:13.385Z,176
2017-09-20T05:06:53.957Z,184
2017-09-20T05:07:34.546Z,196
2017-09-20T05:08:15.120Z,200
2017-09-20T05:08:55.696Z,212
2017-09-20T05:09:36.276Z,228
2017-09-20T05:10:16.864Z,244
2017-09-20T05:10:57.442Z,252
2017-09-20T05:11:38.011Z,256
2017-09-20T05:12:18.587Z,264
2017-09-20T05:12:59.171Z,268
2017-09-20T05:13:39.754Z,264
2017-09-20T05:14:20.342Z,268
2017-09-20T05:15:00.932Z,284
2017-09-20T05:15:41.515Z,304
2017-09-20T05:16:22.100Z,316
2017-09-20T05:17:02.682Z,340
2017-09-20T05:17:43.274Z,356
2017-09-20T05:18:23.852Z,376
2017-09-20T05:19:04.434Z,396
2017-09-20T05:19:45.014Z,384
2017-09-20T05:20:25.592Z,364
2017-09-20T05:21:06.169Z,372
2017-09-20T05:21:46.748Z,424
2017-09-20T05:22:27.328Z,460
2017-09-20T05:23:07.909Z,488
2017-09-20T05:23:48.486Z,504
2017-09-20T05:24:29.058Z,524
2017-09-20T05:25:09.628Z,540
2017-09-20T05:25:50.216Z,552
2017-09-20T05:26:30.793Z,552
2017-09-20T05:27:11.364Z,536
2017-09-20T05:27:51.938Z,512
2017-09-20T05:28:32.517Z,528
2017-09-20T05:29:13.081Z,544
2017-09-20T05:29:53.651Z,568
2017-09-20T05:30:35.038Z,588
2017-09-20T05:31:15.616Z,584
2017-09-20T05:31:56.196Z,556
2017-09-20T05:32:36.762Z,568
2017-09-20T05:33:17.338Z,604
2017-09-20T05:33:57.912Z,632
2017-09-20T05:34:38.492Z,652
2017-09-20T05:35:19.066Z,668
2017-09-20T05:35:59.652Z,688
2017-09-20T05:36:40.228Z,732
2017-09-20T05:37:20.807Z,776
2017-09-20T05:38:01.387Z,820
2017-09-20T05:38:41.955Z,852
2017-09-20T05:39:22.537Z,876
2017-09-20T05:40:03.116Z,900
2017-09-20T05:40:43.687Z,904
2017-09-20T05:41:24.284Z,920
2017-09-20T05:42:04.849Z,952
2017-09-20T05:42:45.423Z,1004
2017-09-20T05:43:26.006Z,1036
2017-09-20T05:44:06.587Z,1060
2017-09-20T05:44:47.159Z,1072
2017-09-20T05:45:27.742Z,1072
2017-09-20T05:46:08.325Z,1020
2017-09-20T05:46:48.905Z,928
2017-09-20T05:47:29.485Z,900
2017-09-20T05:48:10.066Z,940
2017-09-20T05:48:50.640Z,1064
2017-09-20T05:49:31.221Z,1072
2017-09-20T05:50:11.802Z,1032
2017-09-20T05:50:52.377Z,972
2017-09-20T05:51:32.957Z,940
2017-09-20T05:52:13.528Z,956
2017-09-20T05:52:54.110Z,924
2017-09-20T05:53:34.671Z,952
2017-09-20T05:54:15.252Z,928
2017-09-20T05:54:55.831Z,940
2017-09-20T05:55:36.400Z,948
2017-09-20T05:56:16.965Z,996
2017-09-20T05:56:57.545Z,1064
2017-09-20T05:57:38.117Z,1088
2017-09-20T05:58:18.692Z,1108
2017-09-20T05:58:59.275Z,1180
2017-09-20T05:59:39.859Z,1268
2017-09-20T06:00:20.447Z,1348
2017-09-20T06:01:01.022Z,1388
2017-09-20T06:01:41.586Z,1436
2017-09-20T06:02:22.170Z,1540
2017-09-20T06:03:02.752Z,1724
2017-09-20T06:03:43.322Z,1856
2017-09-20T06:04:23.904Z,1884
2017-09-20T06:05:04.484Z,1872
2017-09-20T06:05:45.067Z,1736
2017-09-20T06:06:25.641Z,1716
2017-09-20T06:07:06.203Z,1864
2017-09-20T06:07:46.779Z,1816
2017-09-20T06:08:27.359Z,1616
2017-09-20T06:09:07.924Z,1384
2017-09-20T06:09:48.503Z,1220
2017-09-20T06:10:29.085Z,1196
2017-09-20T06:11:09.662Z,1320
2017-09-20T06:11:50.239Z,1236
2017-09-20T06:12:30.817Z,1160
2017-09-20T06:13:11.397Z,1216
2017-09-20T06:13:51.977Z,1328
2017-09-20T06:14:32.556Z,1328
2017-09-20T06:15:13.126Z,1312
2017-09-20T06:15:53.698Z,1384
2017-09-20T06:16:34.292Z,1464
2017-09-20T06:17:14.866Z,1676
2017-09-20T06:17:55.443Z,1672
2017-09-20T06:18:36.011Z,1896
2017-09-20T06:19:16.592Z,1852
2017-09-20T06:20:12.070Z,1696
2017-09-20T06:20:52.652Z,1544
2017-09-20T06:21:33.226Z,1664
2017-09-20T06:22:13.800Z,1912
2017-09-20T06:22:54.378Z,1960
2017-09-20T06:23:34.959Z,1840
2017-09-20T06:24:15.532Z,1860
2017-09-20T06:24:56.103Z,1976
2017-09-20T06:25:36.680Z,2180
2017-09-20T06:26:17.276Z,2296
2017-09-20T06:26:57.834Z,2252
2017-09-20T06:27:38.423Z,2076
2017-09-20T06:28:19.008Z,2044
2017-09-20T06:28:59.579Z,2132
2017-09-20T06:29:40.157Z,2288
2017-09-20T06:30:20.742Z,2468
2017-09-20T06:31:01.320Z,2540
2017-09-20T06:31:41.895Z,2360
2017-09-20T06:32:22.478Z,2308
2017-09-20T06:33:03.046Z,2080
2017-09-20T06:33:43.626Z,2320
2017-09-20T06:34:24.218Z,2604
2017-09-20T06:35:04.793Z,2636
2017-09-20T06:35:45.376Z,2492
2017-09-20T06:36:25.945Z,2484
2017-09-20T06:37:06.526Z,2432
2017-09-20T06:37:47.102Z,2412
2017-09-20T06:38:27.679Z,2536
2017-09-20T06:39:08.254Z,2548
2017-09-20T06:39:48.832Z,2632
2017-09-20T06:40:29.412Z,2720
2017-09-20T06:41:09.998Z,2952
2017-09-20T06:41:50.568Z,3028
2017-09-20T06:42:31.159Z,3144
2017-09-20T06:43:11.739Z,3200
2017-09-20T06:43:52.315Z,3400
2017-09-20T06:44:32.895Z,3464
2017-09-20T06:45:13.467Z,3396
2017-09-20T06:45:54.055Z,3288
2017-09-20T06:46:34.617Z,3184
2017-09-20T06:47:15.210Z,3108
2017-09-20T06:47:55.791Z,3048
2017-09-20T06:48:36.370Z,2964
2017-09-20T06:49:16.946Z,2884
2017-09-20T06:49:57.528Z,3008
2017-09-20T06:50:38.105Z,3168
2017-09-20T06:51:18.682Z,3144
2017-09-20T06:51:59.263Z,2996
2017-09-20T06:52:39.844Z,2732
2017-09-20T06:53:20.420Z,2532
2017-09-20T06:54:00.998Z,2464
2017-09-20T06:54:41.589Z,2492
2017-09-20T06:55:22.173Z,2520
2017-09-20T06:56:02.744Z,2536
2017-09-20T06:56:43.318Z,2488
2017-09-20T06:57:23.894Z,2396
2017-09-20T06:58:04.470Z,2344
2017-09-20T06:58:45.050Z,2136
2017-09-20T06:59:25.625Z,1992
2017-09-20T07:00:06.206Z,2240
2017-09-20T07:00:46.786Z,2404
2017-09-20T07:01:27.368Z,2416
2017-09-20T07:02:07.942Z,2468
2017-09-20T07:02:48.531Z,2696
2017-09-20T07:03:29.101Z,3140
2017-09-20T07:04:09.681Z,3652
2017-09-20T07:04:50.261Z,4072
2017-09-20T07:05:30.838Z,4352
2017-09-20T07:06:11.418Z,4788
2017-09-20T07:06:52.001Z,5436
2017-09-20T07:07:32.566Z,5720
2017-09-20T07:08:13.153Z,5932
2017-09-20T07:08:53.726Z,5980
2017-09-20T07:09:34.315Z,5968
2017-09-20T07:10:14.870Z,5804
2017-09-20T07:10:55.451Z,5620
2017-09-20T07:11:36.029Z,5348
2017-09-20T07:12:16.609Z,4956
2017-09-20T07:12:57.196Z,4908
2017-09-20T07:13:37.775Z,5052
2017-09-20T07:14:18.363Z,5112
2017-09-20T07:14:58.944Z,5176
2017-09-20T07:15:39.514Z,5488
2017-09-20T07:16:20.100Z,6064
2017-09-20T07:17:00.672Z,6704
2017-09-20T07:17:41.242Z,6964
2017-09-20T07:18:21.821Z,6372
2017-09-20T07:19:02.398Z,5600
2017-09-20T07:19:42.951Z,5052
2017-09-20T07:20:23.540Z,4888
2017-09-20T07:21:04.118Z,4736
2017-09-20T07:21:44.695Z,4600
2017-09-20T07:22:25.276Z,4696
2017-09-20T07:23:05.848Z,4884
2017-09-20T07:23:46.428Z,4588
2017-09-20T07:24:26.995Z,4344
2017-09-20T07:25:07.577Z,4388
2017-09-20T07:25:48.157Z,4452
2017-09-20T07:26:28.741Z,4864
2017-09-20T07:27:09.320Z,5164
2017-09-20T07:27:49.901Z,4704
2017-09-20T07:28:30.470Z,3736
2017-09-20T07:29:11.062Z,3276
2017-09-20T07:29:51.651Z,3304
2017-09-20T07:30:32.223Z,3376
2017-09-20T07:31:12.807Z,3636
2017-09-20T07:31:53.378Z,4712
2017-09-20T07:32:33.970Z,5676
2017-09-20T07:33:14.548Z,6896
2017-09-20T07:33:55.130Z,6684
2017-09-20T07:34:35.700Z,6508
2017-09-20T07:35:16.287Z,6256
2017-09-20T07:35:56.867Z,6516
2017-09-20T07:36:37.448Z,6244
2017-09-20T07:37:18.038Z,7108
2017-09-20T07:39:15.769Z,8264
2017-09-20T07:39:56.348Z,8488
2017-09-20T07:40:36.918Z,8380
2017-09-20T07:41:17.503Z,8200
2017-09-20T07:41:58.076Z,7608
2017-09-20T07:42:38.653Z,7496
2017-09-20T07:43:19.232Z,6900
2017-09-20T07:43:59.806Z,7128
2017-09-20T07:44:40.389Z,6056
2017-09-20T07:45:20.959Z,5508
2017-09-20T07:46:01.540Z,5380
2017-09-20T07:46:42.118Z,4752
2017-09-20T07:47:22.703Z,3920
2017-09-20T07:48:03.272Z,3600
2017-09-20T07:48:43.833Z,3548
2017-09-20T07:49:24.408Z,3764
2017-09-20T07:50:04.997Z,3680
2017-09-20T07:50:45.561Z,3656
2017-09-20T07:51:26.147Z,3980
2017-09-20T07:52:06.722Z,4384
2017-09-20T07:52:47.305Z,4248
2017-09-20T07:53:27.889Z,4896
2017-09-20T07:54:08.466Z,5056
2017-09-20T07:54:49.050Z,5524
2017-09-20T07:55:29.633Z,6564
2017-09-20T07:56:10.206Z,7688
2017-09-20T07:56:50.781Z,10000
2017-09-20T07:57:31.383Z,12208
2017-09-20T07:58:11.928Z,12624
2017-09-20T07:58:52.506Z,12540
2017-09-20T07:59:33.090Z,12520
2017-09-20T08:00:13.747Z,12884
2017-09-20T08:02:41.840Z,12464
2017-09-20T08:03:22.429Z,12784
2017-09-20T08:04:03.004Z,13236
2017-09-20T08:04:43.588Z,13036
2017-09-20T08:05:24.174Z,12368
2017-09-20T08:06:04.751Z,12476
2017-09-20T08:06:45.334Z,12800
2017-09-20T08:07:25.912Z,13376
2017-09-20T08:08:06.491Z,13852
2017-09-20T08:08:47.067Z,14116
2017-09-20T08:09:27.648Z,13760
2017-09-20T08:10:08.220Z,12316
2017-09-20T08:10:48.798Z,12556
2017-09-20T08:11:29.384Z,13804
2017-09-20T08:12:09.969Z,14392
2017-09-20T08:12:50.552Z,14188
2017-09-20T08:13:31.135Z,15292
2017-09-20T08:14:11.722Z,15444
2017-09-20T08:14:52.290Z,15160
2017-09-20T08:15:32.880Z,14252
2017-09-20T08:16:13.459Z,12544
2017-09-20T08:16:54.031Z,10660
2017-09-20T08:17:34.613Z,11240
2017-09-20T08:18:15.189Z,11140
2017-09-20T08:18:55.772Z,10760
2017-09-20T08:19:36.352Z,9716
2017-09-20T08:20:16.936Z,8296
2017-09-20T08:20:57.508Z,7864
2017-09-20T08:21:38.075Z,7888
2017-09-20T08:22:18.660Z,8360
2017-09-20T08:22:59.240Z,9264
2017-09-20T08:23:39.819Z,9036
2017-09-20T08:24:20.403Z,8396
2017-09-20T08:25:00.979Z,8044
2017-09-20T10:13:40.420Z,48384
2017-09-20T10:14:21.012Z,63136
2017-09-20T10:15:01.608Z,39104
2017-09-20T10:15:42.185Z,47424
2017-09-20T10:16:22.766Z,46944
2017-09-20T10:17:03.362Z,46784
2017-09-20T10:17:43.942Z,77664
2017-09-20T10:18:24.526Z,52288
2017-09-20T10:19:05.106Z,65568
2017-09-20T10:19:45.695Z,64000
2017-09-20T10:20:26.281Z,66592
2017-09-20T10:21:06.862Z,68736
2017-09-20T10:21:47.450Z,46880
2017-09-20T10:22:28.036Z,84192
2017-09-20T10:23:08.618Z,67680
2017-09-20T10:23:49.205Z,77216
2017-09-20T10:24:29.799Z,30240
2017-09-20T10:25:10.389Z,25376
2017-09-20T10:25:50.971Z,21856
2017-09-20T10:26:31.561Z,19488
2017-09-20T10:27:12.146Z,18304
2017-09-20T10:27:52.729Z,17344
2017-09-20T10:28:33.320Z,16160
2017-09-20T10:29:13.902Z,14536
2017-09-20T10:29:54.489Z,13500
2017-09-20T10:30:35.075Z,13008
2017-09-20T10:31:15.670Z,12392
2017-09-20T10:31:56.247Z,11516
2017-09-20T10:32:36.839Z,10828
2017-09-20T10:33:17.416Z,11236
2017-09-20T10:33:58.009Z,12308
2017-09-20T10:34:38.600Z,12864
2017-09-20T10:35:19.190Z,13096
2017-09-20T10:35:59.774Z,13160
2017-09-20T10:36:40.363Z,13288
2017-09-20T10:37:20.954Z,12916
2017-09-20T10:38:01.534Z,12200
2017-09-20T10:38:42.118Z,11516
2017-09-20T10:39:22.707Z,11068
2017-09-20T10:40:03.289Z,11536
2017-09-20T10:40:43.866Z,13076
2017-09-20T10:41:24.452Z,14852
2017-09-20T10:42:05.030Z,16480
2017-09-20T10:42:45.615Z,17376
2017-09-20T10:43:26.199Z,18176
2017-09-20T10:44:06.793Z,18368
2017-09-20T10:44:47.380Z,18560
2017-09-20T10:45:27.958Z,18688
2017-09-20T10:46:08.551Z,19360
2017-09-20T10:46:49.129Z,19520
2017-09-20T10:47:29.714Z,20032
2017-09-20T10:48:10.302Z,21440
2017-09-20T10:48:50.890Z,21248
2017-09-20T10:49:31.471Z,21344
2017-09-20T10:50:12.051Z,20704
2017-09-20T10:50:52.634Z,25984
2017-09-20T10:51:33.214Z,22112
2017-09-20T10:52:13.797Z,20704
2017-09-20T10:52:54.380Z,28096
2017-09-20T10:53:34.965Z,23424
2017-09-20T10:54:15.536Z,38944
2017-09-20T10:54:56.126Z,36768
2017-09-20T10:55:36.699Z,25120
2017-09-20T10:56:17.294Z,75136
2017-09-20T10:56:57.871Z,71904
2017-09-20T10:57:38.456Z,35232
2017-09-20T10:58:19.030Z,64288
2017-09-20T10:58:59.620Z,65024
2017-09-20T10:59:40.210Z,39104
2017-09-20T11:00:20.789Z,30336
2017-09-20T11:01:01.368Z,29632
2017-09-20T11:01:41.956Z,29696
2017-09-20T11:02:22.542Z,30144
2017-09-20T11:03:03.121Z,30368
2017-09-20T11:03:43.706Z,30272
2017-09-20T11:04:24.289Z,29728
2017-09-20T11:05:04.878Z,29216
2017-09-20T11:05:45.462Z,29088
2017-09-20T11:06:26.059Z,27968
2017-09-20T11:07:06.631Z,27424
2017-09-20T11:07:47.213Z,26208
2017-09-20T11:08:27.799Z,24928
2017-09-20T11:09:08.376Z,24544
2017-09-20T11:09:48.959Z,24320
2017-09-20T11:10:29.543Z,24128
2017-09-20T11:11:10.126Z,23808
2017-09-20T11:11:50.705Z,23200
2017-09-20T11:12:31.293Z,22720
2017-09-20T11:13:11.910Z,22400
2017-09-20T11:13:52.485Z,22272
2017-09-20T11:14:33.080Z,22144
2017-09-20T11:15:13.675Z,21952
2017-09-20T11:15:54.256Z,21792
2017-09-20T11:16:34.840Z,21536
2017-09-20T11:17:15.428Z,21184
2017-09-20T11:17:56.008Z,20832
2017-09-20T11:18:36.592Z,20576
2017-09-20T11:19:17.186Z,20320
2017-09-20T11:19:57.768Z,19872
2017-09-20T11:20:38.347Z,19328
2017-09-20T11:21:18.927Z,18848
2017-09-20T11:21:59.508Z,18400
2017-09-20T11:22:40.099Z,18048
2017-09-20T11:23:20.690Z,17760
2017-09-20T11:24:01.274Z,17472
2017-09-20T11:24:41.858Z,17216
2017-09-20T11:25:22.447Z,17024
2017-09-20T11:26:03.032Z,16800
2017-09-20T11:26:43.610Z,16640